Time;durP1;ratioP1;P1;durP2;ratioP2;P2;SDS_P1;SDS_P2;PMS_P1;PMS_P2;Temp;Humidity;BMP_temperature;BMP_pressure;BME280_temperature;BME280_humidity;BME280_pressure;Samples;Min_cycle;Max_cycle;Signal;HPM_P1;HPM_P2
2021/01/19 00:00:47;;;;;;;8.25;3.28;;;1.30;29.50;;;;;;4852623;29;20445;-71
2021/01/19 00:03:16;;;;;;;7.45;3.50;;;1.20;29.70;;;;;;4858331;29;20587;-71
2021/01/19 00:05:45;;;;;;;6.90;3.15;;;1.30;30.00;;;;;;4856012;29;20061;-71
2021/01/19 00:08:13;;;;;;;12.02;3.50;;;1.30;29.50;;;;;;4858756;29;20053;-71
2021/01/19 00:10:40;;;;;;;7.40;3.20;;;1.30;29.30;;;;;;4852084;29;20785;-72
2021/01/19 00:13:07;;;;;;;5.70;3.20;;;1.30;28.40;;;;;;4854760;29;20045;-71
2021/01/19 00:15:34;;;;;;;5.88;3.63;;;1.30;29.20;;;;;;4855673;29;20061;-71
2021/01/19 00:18:01;;;;;;;7.10;3.40;;;1.30;29.00;;;;;;4854687;29;20082;-72
2021/01/19 00:20:29;;;;;;;6.22;3.00;;;1.30;28.30;;;;;;4851860;29;20168;-72
2021/01/19 00:22:56;;;;;;;4.72;2.70;;;1.30;28.00;;;;;;4851867;29;20068;-71
2021/01/19 00:25:27;;;;;;;7.22;3.25;;;1.30;27.90;;;;;;4853272;29;20528;-71
2021/01/19 00:27:54;;;;;;;8.43;2.75;;;1.30;28.00;;;;;;4854019;29;20144;-72
2021/01/19 00:30:21;;;;;;;6.45;3.33;;;1.20;28.50;;;;;;4851395;29;20125;-70
2021/01/19 00:32:48;;;;;;;7.72;3.17;;;1.30;27.90;;;;;;4854475;29;20504;-71
2021/01/19 00:35:15;;;;;;;6.40;3.22;;;1.30;27.80;;;;;;4853897;29;20196;-72
2021/01/19 00:37:42;;;;;;;4.35;2.83;;;1.30;27.70;;;;;;4855975;29;20061;-70
2021/01/19 00:40:11;;;;;;;4.78;3.10;;;1.30;27.70;;;;;;4852460;29;20152;-72
2021/01/19 00:42:40;;;;;;;7.53;3.38;;;1.20;27.80;;;;;;4852768;29;20080;-70
2021/01/19 00:45:10;;;;;;;6.65;3.58;;;1.20;28.20;;;;;;4852205;29;20049;-70
2021/01/19 00:47:38;;;;;;;6.25;3.67;;;1.20;28.40;;;;;;4853542;29;20057;-70
2021/01/19 00:50:07;;;;;;;7.40;3.20;;;1.10;28.40;;;;;;4854384;29;20088;-71
2021/01/19 00:52:34;;;;;;;7.38;3.60;;;1.10;28.50;;;;;;4849679;29;20080;-71
2021/01/19 00:55:02;;;;;;;5.90;3.03;;;1.10;28.50;;;;;;4851985;29;20168;-70
2021/01/19 00:57:30;;;;;;;6.28;3.47;;;1.10;28.50;;;;;;4856340;29;20235;-70
2021/01/19 00:59:57;;;;;;;13.05;3.20;;;1.10;28.10;;;;;;4849496;29;20049;-69
2021/01/19 01:02:24;;;;;;;6.28;3.05;;;1.10;28.40;;;;;;4849321;29;20060;-71
2021/01/19 01:04:52;;;;;;;5.20;3.33;;;1.00;28.30;;;;;;4854292;29;20057;-71
2021/01/19 01:07:21;;;;;;;7.65;3.30;;;1.00;28.40;;;;;;4855524;29;20057;-71
2021/01/19 01:09:48;;;;;;;6.03;4.03;;;1.00;29.10;;;;;;4849718;29;20512;-72
2021/01/19 01:12:15;;;;;;;6.63;3.83;;;1.00;28.70;;;;;;4850591;29;20053;-71
2021/01/19 01:14:43;;;;;;;6.18;3.08;;;0.90;29.10;;;;;;4852186;29;20576;-72
2021/01/19 01:17:11;;;;;;;2.90;2.35;;;1.00;28.80;;;;;;4852229;29;20109;-71
2021/01/19 01:19:38;;;;;;;6.32;2.92;;;0.90;28.20;;;;;;4853581;29;20878;-72
2021/01/19 01:22:05;;;;;;;4.60;3.17;;;1.00;27.80;;;;;;4850685;29;20068;-71
2021/01/19 01:24:32;;;;;;;8.07;3.20;;;0.90;28.30;;;;;;4853494;29;20404;-71
2021/01/19 01:26:59;;;;;;;5.35;2.78;;;1.00;27.20;;;;;;4851626;29;20125;-71
2021/01/19 01:29:26;;;;;;;5.63;2.67;;;1.00;27.60;;;;;;4849595;29;20145;-70
2021/01/19 01:31:54;;;;;;;5.78;2.75;;;1.00;27.20;;;;;;4850389;29;20076;-72
2021/01/19 01:34:22;;;;;;;5.22;3.58;;;1.00;27.80;;;;;;4851310;29;20068;-72
2021/01/19 01:36:49;;;;;;;7.88;3.60;;;1.00;27.90;;;;;;4851753;29;20132;-72
2021/01/19 01:39:16;;;;;;;6.50;2.70;;;0.90;28.30;;;;;;4850840;29;20074;-71
2021/01/19 01:41:43;;;;;;;4.68;3.28;;;0.90;28.20;;;;;;4847837;29;20087;-71
2021/01/19 01:44:11;;;;;;;6.13;3.10;;;0.90;28.80;;;;;;4850292;29;20045;-71
2021/01/19 01:46:38;;;;;;;5.15;2.58;;;0.90;28.30;;;;;;4854093;29;20059;-71
2021/01/19 01:49:06;;;;;;;6.75;2.92;;;0.90;27.90;;;;;;4853190;29;20061;-71
2021/01/19 01:51:34;;;;;;;6.00;3.53;;;0.90;28.10;;;;;;4846283;29;20087;-70
2021/01/19 01:54:02;;;;;;;5.97;2.75;;;1.00;27.20;;;;;;4852696;29;20060;-71
2021/01/19 01:56:29;;;;;;;4.38;2.50;;;1.00;27.20;;;;;;4850833;29;20444;-70
2021/01/19 01:58:57;;;;;;;4.65;2.80;;;1.20;26.30;;;;;;4853799;29;20065;-70
2021/01/19 02:01:24;;;;;;;5.30;2.63;;;1.20;25.30;;;;;;4846828;29;20045;-71
2021/01/19 02:03:53;;;;;;;4.18;2.75;;;1.20;25.60;;;;;;4851039;29;20181;-70
2021/01/19 02:06:22;;;;;;;6.90;2.50;;;1.20;26.00;;;;;;4854087;29;20053;-70
2021/01/19 02:08:58;;;;;;;4.85;2.88;;;1.20;25.30;;;;;;4853587;29;20093;-71
2021/01/19 02:11:34;;;;;;;5.55;2.47;;;1.20;25.40;;;;;;4846885;29;20111;-72
2021/01/19 02:14:10;;;;;;;4.28;2.58;;;1.10;25.40;;;;;;4853598;29;20085;-72
2021/01/19 02:16:56;;;;;;;6.30;2.80;;;1.20;25.90;;;;;;4853581;29;20045;-71
2021/01/19 02:20:00;;;;;;;6.22;2.95;;;1.20;25.20;;;;;;4852507;29;20092;-72
2021/01/19 02:22:44;;;;;;;7.72;3.08;;;1.30;24.50;;;;;;4828049;29;20061;-71
2021/01/19 02:25:24;;;;;;;4.43;2.67;;;1.20;25.10;;;;;;4852726;29;20161;-72
2021/01/19 02:28:17;;;;;;;7.00;2.85;;;1.20;24.80;;;;;;4852476;29;20067;-72
2021/01/19 02:31:08;;;;;;;7.05;2.70;;;1.20;26.30;;;;;;4848384;29;20080;-71
2021/01/19 02:33:44;;;;;;;4.68;2.28;;;1.10;27.30;;;;;;4850626;29;20685;-72
2021/01/19 02:36:18;;;;;;;3.83;2.83;;;1.00;27.20;;;;;;4854188;29;20549;-72
2021/01/19 02:38:53;;;;;;;;;;;1.10;27.30;;;;;;4854874;29;21306;-71
2021/01/19 02:41:22;;;;;;;5.78;2.70;;;1.10;27.00;;;;;;4847443;29;19934;-72
2021/01/19 02:43:56;;;;;;;5.18;2.63;;;1.10;27.30;;;;;;4853921;29;20061;-72
2021/01/19 02:46:25;;;;;;;4.93;2.80;;;1.10;27.30;;;;;;4853851;29;20136;-71
2021/01/19 02:48:53;;;;;;;5.30;2.90;;;1.10;27.30;;;;;;4853084;29;20063;-73
2021/01/19 02:51:21;;;;;;;4.78;2.78;;;1.00;27.90;;;;;;4843384;29;20065;-72
2021/01/19 02:53:51;;;;;;;4.82;2.60;;;1.00;28.00;;;;;;4853206;29;20599;-73
2021/01/19 02:56:24;;;;;;;4.95;2.90;;;1.10;28.10;;;;;;4851759;29;20377;-71
2021/01/19 02:59:07;;;;;;;5.68;2.72;;;1.10;27.50;;;;;;4851039;29;20057;-72
2021/01/19 03:01:42;;;;;;;5.75;2.80;;;1.10;28.00;;;;;;4844273;29;20158;-72
2021/01/19 03:04:11;;;;;;;;;;;1.20;27.30;;;;;;4850806;29;20871;-70
2021/01/19 03:06:42;;;;;;;5.70;3.08;;;1.20;27.30;;;;;;4854103;29;20359;-70
2021/01/19 03:09:10;;;;;;;7.28;2.90;;;1.20;27.30;;;;;;4851850;29;20401;-70
2021/01/19 03:11:38;;;;;;;5.53;2.75;;;1.20;27.30;;;;;;4847783;29;20187;-71
2021/01/19 03:14:06;;;;;;;6.00;2.63;;;1.20;27.30;;;;;;4848948;29;20140;-71
2021/01/19 03:16:33;;;;;;;3.97;2.60;;;1.20;27.80;;;;;;4851147;29;20057;-72
2021/01/19 03:19:02;;;;;;;5.65;2.92;;;1.30;27.40;;;;;;4848852;29;20681;-70
2021/01/19 03:21:31;;;;;;;4.68;2.85;;;1.30;27.40;;;;;;4847205;29;20061;-72
2021/01/19 03:23:58;;;;;;;4.60;2.70;;;1.30;27.30;;;;;;4850483;29;20053;-72
2021/01/19 03:26:25;;;;;;;5.45;2.47;;;1.30;26.70;;;;;;4853131;29;20062;-69
2021/01/19 03:28:52;;;;;;;4.05;2.70;;;1.30;25.80;;;;;;4854478;29;20157;-71
2021/01/19 03:31:19;;;;;;;6.25;2.30;;;1.30;26.00;;;;;;4847843;29;20886;-71
2021/01/19 03:33:46;;;;;;;4.43;2.75;;;1.30;26.80;;;;;;4853027;29;20053;-71
2021/01/19 03:36:12;;;;;;;4.55;2.30;;;1.40;26.50;;;;;;4854646;29;20140;-71
2021/01/19 03:38:40;;;;;;;4.40;2.30;;;1.40;24.60;;;;;;4854580;29;20065;-72
2021/01/19 03:41:07;;;;;;;4.65;2.38;;;1.50;24.70;;;;;;4849519;29;20053;-70
2021/01/19 03:43:34;;;;;;;4.97;2.10;;;1.40;24.70;;;;;;4851937;29;20480;-71
2021/01/19 03:46:01;;;;;;;5.45;2.08;;;1.40;24.20;;;;;;4854673;29;20923;-71
2021/01/19 03:48:28;;;;;;;4.53;2.25;;;1.40;24.00;;;;;;4853335;29;20121;-71
2021/01/19 03:50:55;;;;;;;4.68;2.30;;;1.50;24.00;;;;;;4853087;29;20041;-73
2021/01/19 03:53:22;;;;;;;3.63;2.03;;;1.50;23.90;;;;;;4854711;29;20172;-72
2021/01/19 03:55:49;;;;;;;4.10;1.48;;;1.50;23.20;;;;;;4855754;29;20067;-75
2021/01/19 03:58:16;;;;;;;5.07;2.53;;;1.50;24.20;;;;;;4857657;29;20177;-72
2021/01/19 04:00:43;;;;;;;5.00;2.25;;;1.50;23.60;;;;;;4853585;29;20577;-72
2021/01/19 04:03:10;;;;;;;4.22;2.40;;;1.50;23.80;;;;;;4849662;29;20050;-71
2021/01/19 04:05:37;;;;;;;4.85;2.72;;;1.50;23.40;;;;;;4855562;29;20053;-70
2021/01/19 04:08:04;;;;;;;5.15;2.33;;;1.40;23.60;;;;;;4854301;29;20459;-71
2021/01/19 04:10:31;;;;;;;4.30;2.20;;;1.40;23.40;;;;;;4853011;29;20061;-71
2021/01/19 04:12:59;;;;;;;3.75;2.10;;;1.50;23.30;;;;;;4849873;29;20160;-72
2021/01/19 04:15:26;;;;;;;6.20;2.35;;;1.50;23.60;;;;;;4852563;29;20057;-71
2021/01/19 04:17:53;;;;;;;2.75;1.90;;;1.50;23.40;;;;;;4854583;29;20060;-71
2021/01/19 04:20:20;;;;;;;7.95;2.78;;;1.50;23.20;;;;;;4849741;29;20058;-71
2021/01/19 04:22:46;;;;;;;7.75;2.40;;;1.50;23.70;;;;;;4851562;29;20054;-70
2021/01/19 04:25:13;;;;;;;2.75;1.92;;;1.50;23.40;;;;;;4853265;29;20167;-71
2021/01/19 04:27:40;;;;;;;4.38;2.53;;;1.50;23.40;;;;;;4854782;29;20075;-70
2021/01/19 04:30:09;;;;;;;6.38;2.53;;;1.50;23.70;;;;;;4850489;29;21073;-71
2021/01/19 04:32:37;;;;;;;4.43;1.98;;;1.40;24.20;;;;;;4849819;29;20136;-71
2021/01/19 04:35:06;;;;;;;4.93;2.10;;;1.40;24.20;;;;;;4856050;29;20088;-72
2021/01/19 04:37:33;;;;;;;6.15;2.53;;;1.40;23.90;;;;;;4856696;29;20068;-71
2021/01/19 04:40:03;;;;;;;5.45;2.60;;;1.40;23.10;;;;;;4852174;29;20199;-70
2021/01/19 04:42:33;;;;;;;5.15;1.95;;;1.40;22.90;;;;;;4851843;29;20064;-70
2021/01/19 04:45:02;;;;;;;3.97;2.33;;;1.40;22.80;;;;;;4854755;29;20083;-70
2021/01/19 04:47:32;;;;;;;3.17;2.13;;;1.40;22.90;;;;;;4854673;29;20073;-71
2021/01/19 04:49:59;;;;;;;4.22;2.10;;;1.40;23.20;;;;;;4853652;29;20045;-71
2021/01/19 04:52:30;;;;;;;6.60;2.40;;;1.30;24.10;;;;;;4852898;29;20058;-71
2021/01/19 04:55:06;;;;;;;5.90;2.58;;;1.30;24.20;;;;;;4855985;29;20055;-71
2021/01/19 04:57:34;;;;;;;5.13;2.38;;;1.30;24.40;;;;;;4854997;29;20072;-70
2021/01/19 05:00:06;;;;;;;5.68;2.55;;;1.30;24.10;;;;;;4850957;29;20056;-72
2021/01/19 05:03:12;;;;;;;4.53;1.90;;;1.40;23.70;;;;;;4852910;29;20076;-72
2021/01/19 05:05:59;;;;;;;6.63;2.45;;;1.30;24.10;;;;;;4853930;29;21497;-70
2021/01/19 05:08:59;;;;;;;3.92;2.70;;;1.30;24.20;;;;;;4852964;29;20287;-71
2021/01/19 05:11:30;;;;;;;4.00;2.55;;;1.30;24.40;;;;;;4849465;29;20064;-69
2021/01/19 05:14:02;;;;;;;4.38;2.38;;;1.30;23.60;;;;;;4852703;29;20141;-71
2021/01/19 05:16:31;;;;;;;5.20;2.20;;;1.20;23.60;;;;;;4852649;29;20504;-71
2021/01/19 05:19:01;;;;;;;4.63;2.58;;;1.20;23.30;;;;;;4852670;29;20886;-70
2021/01/19 05:21:28;;;;;;;5.20;2.55;;;1.10;23.90;;;;;;4847245;29;20055;-70
2021/01/19 05:23:56;;;;;;;7.40;3.67;;;1.10;24.70;;;;;;4853870;29;20049;-72
2021/01/19 05:26:24;;;;;;;6.68;2.70;;;1.10;24.00;;;;;;4852086;29;20054;-70
2021/01/19 05:28:52;;;;;;;4.68;2.83;;;1.10;24.30;;;;;;4852160;29;20061;-71
2021/01/19 05:31:21;;;;;;;4.60;2.28;;;1.00;25.00;;;;;;4850063;29;20095;-72
2021/01/19 05:34:16;;;;;;;6.05;2.75;;;1.00;24.50;;;;;;4853952;29;20065;-72
2021/01/19 05:36:45;;;;;;;8.50;2.95;;;1.00;24.40;;;;;;4841140;29;20420;-71
2021/01/19 05:39:15;;;;;;;5.45;2.97;;;1.00;24.20;;;;;;4852824;29;20205;-71
2021/01/19 05:41:43;;;;;;;4.07;2.10;;;1.00;24.80;;;;;;4850468;29;20061;-73
2021/01/19 05:44:22;;;;;;;5.32;2.28;;;1.00;24.90;;;;;;4851229;29;20049;-71
2021/01/19 05:46:59;;;;;;;6.50;2.70;;;0.90;24.50;;;;;;4854543;29;20531;-73
2021/01/19 05:49:30;;;;;;;5.15;2.40;;;0.90;24.70;;;;;;4851310;29;20060;-71
2021/01/19 05:52:00;;;;;;;4.22;2.47;;;1.00;24.30;;;;;;4846951;29;20132;-72
2021/01/19 05:54:29;;;;;;;4.60;2.55;;;1.00;25.10;;;;;;4853748;29;20068;-71
2021/01/19 05:57:08;;;;;;;6.40;2.75;;;0.90;25.30;;;;;;4852449;29;20512;-71
2021/01/19 05:59:37;;;;;;;14.85;6.35;;;0.80;25.30;;;;;;4853202;29;20497;-72
2021/01/19 06:02:07;;;;;;;13.90;5.00;;;0.80;25.70;;;;;;4847654;29;20058;-72
2021/01/19 06:04:38;;;;;;;12.77;5.35;;;0.90;25.50;;;;;;4853615;29;20065;-72
2021/01/19 06:07:05;;;;;;;8.00;4.00;;;0.80;25.30;;;;;;4852379;29;20148;-72
2021/01/19 06:09:33;;;;;;;6.10;3.30;;;0.80;25.90;;;;;;4853493;29;20063;-72
2021/01/19 06:12:00;;;;;;;7.45;3.13;;;0.80;26.00;;;;;;4847549;29;20053;-70
2021/01/19 06:14:28;;;;;;;7.43;3.25;;;0.70;26.30;;;;;;4853161;29;20364;-71
2021/01/19 06:17:09;;;;;;;7.07;3.58;;;0.70;26.30;;;;;;4853933;29;20061;-71
2021/01/19 06:19:38;;;;;;;8.35;3.15;;;0.70;26.20;;;;;;4850725;29;20058;-72
2021/01/19 06:22:13;;;;;;;5.40;2.80;;;0.70;27.00;;;;;;4852088;29;20132;-72
2021/01/19 06:24:42;;;;;;;8.93;2.70;;;0.70;26.90;;;;;;4852325;29;20057;-71
2021/01/19 06:27:11;;;;;;;4.38;2.90;;;0.60;27.00;;;;;;4852911;29;20400;-69
2021/01/19 06:29:38;;;;;;;7.82;3.03;;;0.70;27.00;;;;;;4852867;29;20586;-72
2021/01/19 06:32:08;;;;;;;4.25;2.88;;;0.70;27.00;;;;;;4853294;29;20120;-72
2021/01/19 06:34:38;;;;;;;4.53;2.78;;;0.70;27.00;;;;;;4855074;29;20053;-73
2021/01/19 06:37:08;;;;;;;4.57;3.28;;;0.70;27.00;;;;;;4855973;29;20061;-75
2021/01/19 06:39:38;;;;;;;7.05;3.38;;;0.80;26.30;;;;;;4854292;29;20776;-73
2021/01/19 06:42:08;;;;;;;8.52;2.88;;;0.90;26.30;;;;;;4850310;29;20050;-75
2021/01/19 06:44:37;;;;;;;8.32;3.30;;;0.80;26.10;;;;;;4853599;29;20072;-73
2021/01/19 06:47:06;;;;;;;6.75;2.92;;;0.80;26.30;;;;;;4856186;29;20084;-73
2021/01/19 06:49:53;;;;;;;4.72;2.50;;;0.90;25.30;;;;;;4852657;29;20149;-73
2021/01/19 06:52:21;;;;;;;5.03;2.80;;;0.80;25.00;;;;;;4853856;29;20447;-75
2021/01/19 06:55:03;;;;;;;6.72;2.63;;;0.80;24.70;;;;;;4857885;29;20057;-72
2021/01/19 06:57:53;;;;;;;4.97;2.88;;;0.80;24.50;;;;;;4857832;29;20118;-72
2021/01/19 07:00:21;;;;;;;4.80;2.75;;;0.70;25.20;;;;;;4855001;29;20149;-74
2021/01/19 07:02:49;;;;;;;6.90;2.65;;;0.70;25.50;;;;;;4859949;29;20045;-75
2021/01/19 07:05:19;;;;;;;5.30;2.50;;;0.70;25.10;;;;;;4863435;29;20057;-76
2021/01/19 07:07:47;;;;;;;4.95;2.75;;;0.70;25.00;;;;;;4864181;29;20054;-76
2021/01/19 07:10:16;;;;;;;5.30;2.60;;;0.70;25.80;;;;;;4859994;29;20100;-75
2021/01/19 07:12:55;;;;;;;9.05;3.08;;;0.70;25.20;;;;;;4862001;29;20579;-75
2021/01/19 07:15:30;;;;;;;5.65;2.60;;;0.70;24.80;;;;;;4860544;29;20424;-74
2021/01/19 07:18:37;;;;;;;8.88;3.03;;;0.70;24.90;;;;;;4861146;29;20059;-73
2021/01/19 07:21:06;;;;;;;7.03;2.95;;;0.70;24.80;;;;;;4837489;29;20061;-74
2021/01/19 07:24:11;;;;;;;6.70;2.53;;;0.70;24.10;;;;;;4860178;29;20509;-74
2021/01/19 07:26:41;;;;;;;8.77;4.95;;;0.60;24.80;;;;;;4860446;29;20074;-74
2021/01/19 07:29:08;;;;;;;3.88;2.70;;;0.60;25.40;;;;;;4859894;29;20053;-72
2021/01/19 07:31:36;;;;;;;7.90;3.03;;;0.70;24.80;;;;;;4855568;29;20152;-75
2021/01/19 07:34:05;;;;;;;4.97;2.90;;;0.70;25.00;;;;;;4859076;29;20058;-73
2021/01/19 07:36:32;;;;;;;6.88;2.65;;;0.70;24.80;;;;;;4861237;29;20128;-73
2021/01/19 07:38:59;;;;;;;6.57;2.70;;;0.80;24.30;;;;;;4860873;29;20053;-72
2021/01/19 07:41:27;;;;;;;5.50;2.90;;;0.80;24.30;;;;;;4855813;29;20132;-72
2021/01/19 07:43:56;;;;;;;7.80;2.55;;;0.80;24.40;;;;;;4860784;29;20079;-72
2021/01/19 07:46:38;;;;;;;3.70;2.47;;;0.90;24.00;;;;;;4862547;29;20501;-73
2021/01/19 07:49:07;;;;;;;6.90;2.38;;;0.90;23.30;;;;;;4860579;29;20128;-74
2021/01/19 07:51:42;;;;;;;6.18;2.75;;;1.00;22.90;;;;;;4857609;29;20064;-75
2021/01/19 07:54:10;;;;;;;6.78;2.70;;;1.00;22.90;;;;;;4862683;29;20088;-71
2021/01/19 07:56:37;;;;;;;7.28;2.67;;;1.00;23.20;;;;;;4860852;29;20053;-71
2021/01/19 07:59:15;;;;;;;5.75;2.67;;;1.00;22.70;;;;;;4855307;29;20140;-71
2021/01/19 08:01:42;;;;;;;3.47;2.10;;;1.10;22.80;;;;;;4852590;29;20053;-72
2021/01/19 08:04:10;;;;;;;3.47;2.28;;;1.10;22.30;;;;;;4857177;29;20057;-71
2021/01/19 08:06:38;;;;;;;4.13;2.17;;;1.10;22.20;;;;;;4856876;29;20065;-71
2021/01/19 08:09:14;;;;;;;5.80;2.15;;;1.10;22.20;;;;;;4857468;29;20508;-70
2021/01/19 08:11:43;;;;;;;4.47;2.47;;;1.20;22.60;;;;;;4853819;29;20057;-71
2021/01/19 08:14:14;;;;;;;6.35;2.60;;;1.30;20.70;;;;;;4858863;29;20056;-70
2021/01/19 08:16:43;;;;;;;5.25;2.95;;;1.40;20.80;;;;;;4857398;29;20133;-70
2021/01/19 08:19:11;;;;;;;6.40;2.42;;;1.50;20.90;;;;;;4858368;29;20101;-72
2021/01/19 08:21:48;;;;;;;5.15;2.47;;;1.60;20.90;;;;;;4851607;29;20061;-71
2021/01/19 08:24:15;;;;;;;7.75;3.92;;;1.60;20.30;;;;;;4856561;29;20049;-73
2021/01/19 08:26:44;;;;;;;5.13;2.63;;;1.70;20.00;;;;;;4854965;29;20527;-72
2021/01/19 08:29:22;;;;;;;5.45;2.75;;;1.80;19.40;;;;;;4854728;29;20065;-70
2021/01/19 08:31:52;;;;;;;6.75;3.00;;;1.90;18.90;;;;;;4852716;29;20423;-72
2021/01/19 08:34:19;;;;;;;4.75;2.20;;;2.00;18.90;;;;;;4853726;29;20152;-75
2021/01/19 08:36:48;;;;;;;8.02;2.53;;;2.00;18.10;;;;;;4858021;29;20058;-73
2021/01/19 08:39:17;;;;;;;3.53;2.20;;;2.10;17.70;;;;;;4860667;29;20053;-76
2021/01/19 08:41:46;;;;;;;4.65;2.03;;;2.30;16.60;;;;;;4854869;29;20743;-74
2021/01/19 08:44:30;;;;;;;8.38;2.50;;;2.30;15.50;;;;;;4854434;29;20506;-71
2021/01/19 08:46:58;;;;;;;5.35;2.17;;;2.40;15.00;;;;;;4857137;29;20053;-72
2021/01/19 08:49:33;;;;;;;7.88;2.25;;;2.60;14.90;;;;;;4853990;29;20067;-72
2021/01/19 08:52:02;;;;;;;5.18;2.17;;;2.70;14.60;;;;;;4850098;29;20094;-71
2021/01/19 08:54:30;;;;;;;4.10;3.00;;;2.60;14.00;;;;;;4856193;29;20053;-70
2021/01/19 08:56:58;;;;;;;7.03;2.75;;;2.40;13.90;;;;;;4856471;29;20057;-75
2021/01/19 08:59:38;;;;;;;5.88;2.47;;;2.60;13.60;;;;;;4858167;29;20156;-72
2021/01/19 09:02:05;;;;;;;5.50;2.78;;;2.80;14.20;;;;;;4854974;29;20508;-72
2021/01/19 09:04:33;;;;;;;10.38;2.85;;;2.80;13.50;;;;;;4853187;29;20552;-72
2021/01/19 09:07:07;;;;;;;5.38;2.72;;;2.80;13.10;;;;;;4856889;29;20056;-71
2021/01/19 09:09:34;;;;;;;6.50;2.80;;;2.90;13.40;;;;;;4855046;29;20057;-74
2021/01/19 09:12:01;;;;;;;8.85;2.95;;;2.80;13.10;;;;;;4852504;29;20513;-74
2021/01/19 09:14:29;;;;;;;7.88;2.83;;;2.90;12.80;;;;;;4854182;29;20140;-73
2021/01/19 09:16:56;;;;;;;4.18;2.22;;;2.80;12.90;;;;;;4857724;29;20619;-73
2021/01/19 09:19:24;;;;;;;6.47;3.15;;;2.80;12.90;;;;;;4852631;29;20079;-74
2021/01/19 09:21:51;;;;;;;7.68;2.72;;;2.80;13.50;;;;;;4855582;29;20106;-75
2021/01/19 09:24:21;;;;;;;10.55;3.75;;;2.90;12.90;;;;;;4859193;29;20056;-73
2021/01/19 09:26:58;;;;;;;5.35;2.50;;;2.90;13.00;;;;;;4856173;29;20509;-73
2021/01/19 09:29:28;;;;;;;5.50;2.65;;;2.80;12.80;;;;;;4858196;29;20089;-73
2021/01/19 09:31:58;;;;;;;5.30;2.60;;;2.80;13.10;;;;;;4856053;29;20253;-74
2021/01/19 09:34:26;;;;;;;14.77;3.03;;;2.80;12.10;;;;;;4859302;29;20116;-74
2021/01/19 09:36:53;;;;;;;4.88;2.88;;;2.90;12.80;;;;;;4860412;29;20053;-75
2021/01/19 09:39:28;;;;;;;8.95;3.53;;;2.90;12.70;;;;;;4856781;29;20105;-72
2021/01/19 09:41:58;;;;;;;8.30;2.88;;;3.00;12.00;;;;;;4857461;29;20136;-74
2021/01/19 09:44:26;;;;;;;6.70;2.60;;;2.90;12.30;;;;;;4858967;29;20133;-74
2021/01/19 09:46:55;;;;;;;5.70;2.92;;;2.90;12.10;;;;;;4858240;29;20071;-74
2021/01/19 09:49:24;;;;;;;5.93;3.08;;;2.90;12.10;;;;;;4859641;29;20655;-74
2021/01/19 09:51:51;;;;;;;8.30;3.30;;;2.90;11.80;;;;;;4853189;29;20072;-74
2021/01/19 09:54:22;;;;;;;14.20;6.32;;;2.90;11.70;;;;;;4860043;29;20417;-72
2021/01/19 09:56:56;;;;;;;9.02;3.90;;;2.90;12.30;;;;;;4857246;29;20152;-75
2021/01/19 09:59:24;;;;;;;7.32;3.67;;;2.80;12.10;;;;;;4857061;29;20053;-75
2021/01/19 10:01:52;;;;;;;5.45;3.20;;;2.90;12.50;;;;;;4853348;29;20056;-73
2021/01/19 10:04:19;;;;;;;10.98;3.30;;;2.90;12.50;;;;;;4859550;29;20565;-76
2021/01/19 10:06:46;;;;;;;7.10;3.20;;;3.00;12.20;;;;;;4858468;29;20113;-74
2021/01/19 10:09:21;;;;;;;8.05;4.00;;;3.00;11.70;;;;;;4857336;29;20071;-74
2021/01/19 10:11:57;;;;;;;11.40;3.90;;;3.00;11.50;;;;;;4856207;29;20100;-74
2021/01/19 10:14:32;;;;;;;7.65;3.60;;;3.00;11.30;;;;;;4857602;29;20057;-73
2021/01/19 10:17:00;;;;;;;6.78;3.30;;;2.90;11.20;;;;;;4859117;29;20136;-76
2021/01/19 10:19:29;;;;;;;13.07;3.40;;;2.90;11.50;;;;;;4860039;29;20072;-73
2021/01/19 10:21:58;;;;;;;10.80;3.75;;;2.90;11.40;;;;;;4854043;29;20049;-73
2021/01/19 10:24:26;;;;;;;7.75;3.53;;;3.00;11.60;;;;;;4854525;29;20057;-75
2021/01/19 10:27:11;;;;;;;7.95;3.60;;;3.00;11.30;;;;;;4858394;29;20422;-74
2021/01/19 10:29:40;;;;;;;12.18;4.00;;;3.10;12.30;;;;;;4856930;29;20053;-74
2021/01/19 10:32:11;;;;;;;7.80;3.35;;;3.20;11.30;;;;;;4855148;29;20117;-72
2021/01/19 10:34:45;;;;;;;7.32;4.35;;;3.00;11.20;;;;;;4859056;29;20086;-75
2021/01/19 10:37:12;;;;;;;6.90;3.55;;;3.00;12.60;;;;;;4863594;29;20066;-73
2021/01/19 10:39:47;;;;;;;7.60;3.88;;;3.00;11.50;;;;;;4861457;29;20053;-72
2021/01/19 10:42:25;;;;;;;8.90;3.10;;;3.10;11.90;;;;;;4857034;29;20045;-72
2021/01/19 10:44:55;;;;;;;5.55;3.05;;;3.00;12.30;;;;;;4860385;29;20069;-74
2021/01/19 10:47:22;;;;;;;5.68;2.80;;;3.00;12.40;;;;;;4862767;29;20475;-74
2021/01/19 10:49:49;;;;;;;6.00;3.65;;;3.10;13.20;;;;;;4860352;29;20552;-70
2021/01/19 10:52:16;;;;;;;5.43;3.13;;;3.20;13.10;;;;;;4859337;29;20496;-73
2021/01/19 10:54:43;;;;;;;6.57;3.33;;;3.20;13.40;;;;;;4859176;29;20056;-72
2021/01/19 10:57:10;;;;;;;7.15;3.80;;;3.20;12.90;;;;;;4859319;29;20148;-72
2021/01/19 10:59:38;;;;;;;7.85;4.10;;;3.20;13.20;;;;;;4859625;29;20064;-72
2021/01/19 11:02:06;;;;;;;6.40;3.75;;;3.20;13.50;;;;;;4856531;29;20469;-74
2021/01/19 11:04:33;;;;;;;8.55;4.07;;;3.00;12.80;;;;;;4858994;29;20057;-71
2021/01/19 11:07:01;;;;;;;12.93;7.18;;;3.10;12.60;;;;;;4859977;29;20132;-72
2021/01/19 11:09:28;;;;;;;9.55;4.53;;;3.10;13.30;;;;;;4858581;29;20435;-72
2021/01/19 11:11:55;;;;;;;9.57;4.60;;;3.00;12.80;;;;;;4853896;29;20068;-73
2021/01/19 11:14:21;;;;;;;10.07;4.43;;;3.10;13.10;;;;;;4859678;29;20152;-71
2021/01/19 11:16:50;;;;;;;8.93;5.07;;;3.10;13.70;;;;;;4861028;29;20077;-72
2021/01/19 11:19:17;;;;;;;10.18;4.72;;;3.20;13.70;;;;;;4858652;29;20050;-73
2021/01/19 11:21:44;;;;;;;10.10;4.22;;;3.20;13.40;;;;;;4857660;29;20081;-75
2021/01/19 11:24:12;;;;;;;9.70;4.47;;;3.20;12.90;;;;;;4859102;29;20062;-75
2021/01/19 11:26:41;;;;;;;11.68;4.88;;;3.30;13.00;;;;;;4860513;29;20116;-75
2021/01/19 11:29:21;;;;;;;13.73;4.90;;;3.30;13.50;;;;;;4860116;29;20049;-74
2021/01/19 11:31:48;;;;;;;9.30;4.32;;;3.40;13.00;;;;;;4857236;29;20068;-74
2021/01/19 11:34:16;;;;;;;18.30;5.82;;;3.40;13.40;;;;;;4859959;29;20049;-74
2021/01/19 11:36:43;;;;;;;10.13;5.38;;;3.40;13.30;;;;;;4860430;29;20045;-74
2021/01/19 11:39:11;;;;;;;10.43;4.57;;;3.40;13.00;;;;;;4859221;29;20061;-75
2021/01/19 11:41:39;;;;;;;10.40;4.68;;;3.50;12.80;;;;;;4856219;29;20077;-76
2021/01/19 11:44:07;;;;;;;11.05;4.50;;;3.60;12.50;;;;;;4861178;29;20049;-76
2021/01/19 11:46:34;;;;;;;9.48;4.20;;;3.50;12.60;;;;;;4856818;29;20068;-73
2021/01/19 11:49:04;;;;;;;11.18;4.70;;;3.50;13.30;;;;;;4858867;29;20053;-74
2021/01/19 11:51:34;;;;;;;15.23;5.20;;;3.50;13.60;;;;;;4855224;29;20172;-75
2021/01/19 11:54:03;;;;;;;6.70;3.13;;;3.60;13.70;;;;;;4859557;29;20135;-76
2021/01/19 11:56:34;;;;;;;21.42;12.02;;;3.60;13.10;;;;;;4860064;29;20712;-74
2021/01/19 11:59:02;;;;;;;15.63;7.10;;;3.80;12.90;;;;;;4859863;29;20049;-75
2021/01/19 12:01:29;;;;;;;5.13;2.85;;;3.90;11.90;;;;;;4853902;29;21814;-73
2021/01/19 12:03:57;;;;;;;7.88;2.88;;;3.80;11.80;;;;;;4859797;29;20069;-74
2021/01/19 12:06:25;;;;;;;6.72;3.22;;;3.80;12.90;;;;;;4861407;29;20064;-75
2021/01/19 12:08:54;;;;;;;6.38;3.30;;;3.70;13.30;;;;;;4864426;29;20089;-71
2021/01/19 12:11:21;;;;;;;8.57;3.38;;;3.70;14.30;;;;;;4856588;29;20050;-74
2021/01/19 12:13:48;;;;;;;10.55;2.78;;;3.60;14.40;;;;;;4860164;29;20464;-73
2021/01/19 12:16:21;;;;;;;6.13;3.10;;;3.60;13.50;;;;;;4859715;29;20088;-75
2021/01/19 12:18:49;;;;;;;6.07;3.05;;;3.60;15.10;;;;;;4859999;29;20057;-74
2021/01/19 12:21:20;;;;;;;5.63;3.40;;;3.70;15.20;;;;;;4856027;29;20053;-73
2021/01/19 12:23:47;;;;;;;6.55;2.88;;;3.70;15.30;;;;;;4856169;29;20547;-76
2021/01/19 12:26:17;;;;;;;8.60;3.25;;;3.70;13.80;;;;;;4860214;29;20129;-74
2021/01/19 12:28:45;;;;;;;7.80;3.40;;;3.80;14.80;;;;;;4859772;29;20176;-74
2021/01/19 12:31:12;;;;;;;6.75;3.17;;;3.80;14.60;;;;;;4857453;29;20070;-75
2021/01/19 12:33:39;;;;;;;6.03;3.30;;;3.90;14.60;;;;;;4857673;29;20060;-72
2021/01/19 12:36:07;;;;;;;6.07;3.17;;;3.90;13.50;;;;;;4861158;29;20066;-73
2021/01/19 12:38:34;;;;;;;4.50;2.88;;;4.00;13.50;;;;;;4861972;29;20478;-73
2021/01/19 12:41:01;;;;;;;6.70;3.88;;;4.10;12.30;;;;;;4855107;29;20084;-73
2021/01/19 12:43:29;;;;;;;4.72;2.95;;;4.20;13.10;;;;;;4861497;29;20088;-73
2021/01/19 12:45:56;;;;;;;6.03;3.42;;;4.10;13.50;;;;;;4861014;29;20061;-74
2021/01/19 12:48:24;;;;;;;7.45;3.47;;;4.10;13.60;;;;;;4858138;29;20231;-71
2021/01/19 12:50:51;;;;;;;9.32;3.05;;;4.10;13.60;;;;;;4852583;29;20682;-71
2021/01/19 12:53:18;;;;;;;9.23;3.85;;;4.20;15.40;;;;;;4857095;29;20045;-72
2021/01/19 12:55:44;;;;;;;7.72;3.90;;;4.10;15.50;;;;;;4857195;29;20053;-71
2021/01/19 12:58:11;;;;;;;15.57;8.20;;;4.10;15.50;;;;;;4857302;29;20530;-73
2021/01/19 13:00:39;;;;;;;7.07;3.30;;;4.20;16.40;;;;;;4855985;29;20511;-73
2021/01/19 13:03:07;;;;;;;7.75;3.30;;;4.20;16.40;;;;;;4856961;29;20743;-74
2021/01/19 13:05:34;;;;;;;8.88;3.90;;;4.20;15.80;;;;;;4861738;29;20049;-76
2021/01/19 13:08:01;;;;;;;7.57;3.45;;;4.30;17.00;;;;;;4862985;29;20070;-75
2021/01/19 13:10:28;;;;;;;5.43;3.22;;;4.20;17.00;;;;;;4856808;29;20065;-73